Poncha Springs, CO (81242)

11:26 PM MST on December 25, 2014 (GMT -0700)
Elk Trail | Change Station
CLOSE
Current Station
Personal Weather Station
Location: Salida, CO
Elevation: 8130 ft
Nearby Weather Stations
Active Advisory: Winter Weather Advisory

Elev 8130 ft 38.55 °N, 106.12 °W | Updated 2 minutes ago

Overcast
Overcast
22.6 °F
Feels Like 23 °F
N
2.0
Wind Variable Wind from South
Gusts 11.0 mph

Today
High -- | Low -- °F
--% Chance of Precip.
Yesterday
High -- | Low -- °F
Precip. -- in
7:19 AM 4:49 PM
Waxing Crescent, 23% visible
Pressure 29.70 in
Visibility 10.0 miles
Clouds Scattered Clouds 3500 ft
Scattered Clouds 5000 ft
Overcast 7500 ft
Windchill 23 °F
Dew Point 18 °F
Humidity 81%
Rainfall 0.00 in
Snow Depth Not available.
UV 0 out of 12
Pollen .10 out of 12
Air Quality Not available.
Flu Activity Not available.
METAR KANK 260615Z AUTO 12008KT 10SM SCT035 SCT050 OVC075 M01/M07 A2970 RMK AO1 T10141075

More Conditions Fewer Conditions

Pressure 29.70 in
Visibility 10.0 miles
Clouds Scattered Clouds 3500 ft
Scattered Clouds 5000 ft
Overcast 7500 ft
Windchill 23 °F
Dew Point 18 °F
Humidity 81%
Rainfall 0.00 in
Snow Depth Not available.
UV 0 out of 12
Pollen .10 out of 12
Air Quality Not available.
Flu Activity Not available.
METAR KANK 260615Z AUTO 12008KT 10SM SCT035 SCT050 OVC075 M01/M07 A2970 RMK AO1 T10141075

More Conditions Fewer Conditions

10-Day Weather Forecast

Almanac

Astronomy

Dec. 25, 2014 Rise Set
Actual Time
Civil Twilight
Nautical Twilight
Astronomical Twilight
Moon
Length of Visible Light
Length of Day
Tomorrow will be .
, % of the Moon is Illuminated

Today's Extremes

State Highs State Lows

Community

WunderPhotos

Upload Photos

1,780,556 photos uploaded!

WunderBlogs® & News

Nearby

Air Quality

  Air Quality AQ Index Pollutant
Not available.

Snow Depth

Station Depth Elevation

Earthquake Activity

City Distance Mag. Time & Date
Minimum magnitude displayed is 2.5.

Coastal Water Temperatures

Place Temperature

Nearby Weather Stations